createdAt,value
2018-05-31T00:02:20.811Z,45.21
2018-05-31T00:04:48.804Z,46.70
2018-05-31T00:07:16.844Z,45.95
2018-05-31T00:09:44.830Z,45.29
2018-05-31T00:12:12.834Z,44.98
2018-05-31T00:14:40.909Z,45.32
2018-05-31T00:17:09.194Z,44.54
2018-05-31T00:19:37.174Z,44.72
2018-05-31T00:22:05.178Z,45.22
2018-05-31T00:24:33.159Z,49.13
2018-05-31T00:27:01.153Z,48.23
2018-05-31T00:29:29.233Z,48.95
2018-05-31T00:31:57.186Z,49.14
2018-05-31T00:34:25.213Z,48.98
2018-05-31T00:36:53.242Z,50.63
2018-05-31T00:39:21.254Z,48.50
2018-05-31T00:41:49.356Z,47.84
2018-05-31T00:44:17.479Z,51.05
2018-05-31T00:46:45.542Z,52.17
2018-05-31T00:49:13.548Z,54.25
2018-05-31T00:51:41.638Z,52.06
2018-05-31T00:54:09.638Z,51.04
2018-05-31T00:56:37.694Z,51.85
2018-05-31T00:59:05.651Z,49.83
2018-05-31T01:01:33.693Z,51.72
2018-05-31T01:04:01.721Z,50.04
2018-05-31T01:06:29.745Z,50.07
2018-05-31T01:08:57.803Z,49.49
2018-05-31T01:11:25.874Z,48.63
2018-05-31T01:13:53.906Z,48.62
2018-05-31T01:16:21.923Z,48.39
2018-05-31T01:18:50.384Z,48.49
2018-05-31T01:21:18.393Z,48.55
2018-05-31T01:23:46.375Z,49.51
2018-05-31T01:26:14.477Z,48.63
2018-05-31T01:28:42.495Z,49.52
2018-05-31T01:31:10.550Z,49.77
2018-05-31T01:33:38.560Z,50.56
2018-05-31T01:36:06.596Z,54.22
2018-05-31T01:38:34.694Z,56.23
2018-05-31T01:41:02.753Z,54.71
2018-05-31T01:43:30.734Z,54.67
2018-05-31T01:45:58.740Z,55.58
2018-05-31T01:48:26.826Z,56.91
2018-05-31T01:50:54.857Z,55.64
2018-05-31T01:53:22.893Z,53.20
2018-05-31T01:55:50.887Z,53.54
2018-05-31T01:58:18.866Z,51.89
2018-05-31T02:00:46.899Z,51.41
2018-05-31T02:03:14.889Z,50.58
2018-05-31T02:05:42.902Z,51.73
2018-05-31T02:08:10.922Z,51.54
2018-05-31T02:10:38.966Z,50.58
2018-05-31T02:13:07.028Z,51.61
2018-05-31T02:15:35.102Z,51.08
2018-05-31T02:18:03.154Z,50.77
2018-05-31T02:20:31.648Z,53.44
2018-05-31T02:22:59.655Z,52.11
2018-05-31T02:25:27.722Z,52.46
2018-05-31T02:27:55.756Z,52.11
2018-05-31T02:30:23.744Z,50.79
2018-05-31T02:32:51.790Z,50.55
2018-05-31T02:35:19.713Z,50.51
2018-05-31T02:37:47.770Z,50.69
2018-05-31T02:40:15.943Z,51.30
2018-05-31T02:42:43.929Z,51.32
2018-05-31T02:45:12.030Z,53.99
2018-05-31T02:47:40.124Z,51.90
2018-05-31T02:50:08.139Z,52.92
2018-05-31T02:52:36.242Z,50.97
2018-05-31T02:55:04.269Z,51.09
2018-05-31T02:57:32.379Z,50.62
2018-05-31T03:00:00.449Z,54.36
2018-05-31T03:02:28.466Z,54.74
2018-05-31T03:04:56.551Z,53.44
2018-05-31T03:07:24.616Z,54.08
2018-05-31T03:09:52.650Z,52.63
2018-05-31T03:12:20.668Z,52.25
2018-05-31T03:14:48.694Z,53.00
2018-05-31T03:17:16.727Z,51.94
2018-05-31T03:19:44.751Z,51.42
2018-05-31T03:22:13.213Z,51.78
2018-05-31T03:24:41.235Z,52.05
2018-05-31T03:27:09.313Z,52.60
2018-05-31T03:29:37.314Z,53.72
2018-05-31T03:32:05.316Z,52.62
2018-05-31T03:34:33.327Z,52.06
2018-05-31T03:37:01.351Z,52.78
2018-05-31T03:39:29.343Z,54.00
2018-05-31T03:41:57.321Z,53.24
2018-05-31T03:44:25.366Z,52.11
2018-05-31T03:46:53.363Z,51.79
2018-05-31T03:49:21.839Z,52.92
2018-05-31T03:51:50.315Z,51.68
2018-05-31T03:54:18.978Z,51.57
2018-05-31T03:56:46.976Z,51.09
2018-05-31T03:59:15.745Z,52.36
2018-05-31T04:01:44.285Z,52.46
2018-05-31T04:04:12.709Z,51.96
2018-05-31T04:06:41.388Z,51.60
2018-05-31T04:09:09.964Z,51.69
2018-05-31T04:11:39.471Z,51.97
2018-05-31T04:14:08.157Z,49.83
2018-05-31T04:16:36.659Z,50.57
2018-05-31T04:19:05.221Z,49.62
2018-05-31T04:21:33.818Z,53.23
2018-05-31T04:24:02.479Z,57.75
2018-05-31T04:26:30.891Z,55.72
2018-05-31T04:28:59.467Z,57.79
2018-05-31T04:31:28.138Z,58.77
2018-05-31T04:33:56.430Z,59.33
2018-05-31T04:36:24.996Z,59.05
2018-05-31T04:38:53.664Z,59.51
2018-05-31T04:41:21.970Z,58.27
2018-05-31T04:43:50.769Z,57.62
2018-05-31T04:46:19.339Z,56.22
2018-05-31T04:48:48.223Z,53.52
2018-05-31T04:51:17.010Z,52.03
2018-05-31T04:53:45.838Z,51.42
2018-05-31T04:56:14.210Z,51.19
2018-05-31T04:58:42.728Z,52.72
2018-05-31T05:01:11.235Z,53.18
2018-05-31T05:03:39.881Z,53.99
2018-05-31T05:06:08.504Z,52.04
2018-05-31T05:08:36.781Z,50.86
2018-05-31T05:11:05.763Z,50.49
2018-05-31T05:13:34.347Z,51.31
2018-05-31T05:16:02.755Z,54.42
2018-05-31T05:18:31.204Z,55.29
2018-05-31T05:20:59.990Z,55.57
2018-05-31T05:23:28.437Z,53.06
2018-05-31T05:25:57.382Z,50.23
2018-05-31T05:28:25.691Z,49.53
2018-05-31T05:30:54.141Z,52.78
2018-05-31T05:33:22.601Z,54.93
2018-05-31T05:35:50.642Z,54.23
2018-05-31T05:38:18.735Z,52.18
2018-05-31T05:40:46.762Z,50.36
2018-05-31T05:43:14.827Z,52.08
2018-05-31T05:45:42.858Z,50.60
2018-05-31T05:48:10.888Z,50.76
2018-05-31T05:50:38.940Z,51.36
2018-05-31T05:53:07.009Z,48.65
2018-05-31T05:55:35.060Z,49.70
2018-05-31T05:58:03.106Z,48.74
2018-05-31T06:00:31.206Z,49.20
2018-05-31T06:02:59.234Z,49.09
2018-05-31T06:05:27.285Z,50.71
2018-05-31T06:07:55.347Z,51.23
2018-05-31T06:10:23.397Z,51.09
2018-05-31T06:12:51.460Z,50.72
2018-05-31T06:15:19.501Z,47.98
2018-05-31T06:17:47.580Z,48.40
2018-05-31T06:20:15.642Z,45.87
2018-05-31T06:22:43.691Z,45.79
2018-05-31T06:25:11.835Z,44.76
2018-05-31T06:27:40.337Z,44.44
2018-05-31T06:30:08.434Z,42.73
2018-05-31T06:32:36.634Z,44.12
2018-05-31T06:35:04.759Z,44.17
2018-05-31T06:37:32.919Z,43.89
2018-05-31T06:40:01.089Z,42.68
2018-05-31T06:42:29.163Z,42.99
2018-05-31T06:44:57.183Z,43.71
2018-05-31T06:47:25.302Z,43.19
2018-05-31T06:49:53.785Z,43.59
2018-05-31T06:52:21.812Z,42.23
2018-05-31T06:54:49.863Z,40.56
2018-05-31T06:57:17.932Z,42.57
2018-05-31T06:59:45.978Z,40.06
2018-05-31T07:02:14.013Z,40.36
2018-05-31T07:04:42.003Z,38.92
2018-05-31T07:07:10.070Z,39.28
2018-05-31T07:09:38.096Z,39.82
2018-05-31T07:12:06.220Z,37.29
2018-05-31T07:14:34.263Z,36.74
2018-05-31T07:17:02.284Z,37.16
2018-05-31T07:19:30.325Z,36.53
2018-05-31T07:21:58.310Z,37.11
2018-05-31T07:24:26.333Z,37.37
2018-05-31T07:26:54.361Z,36.11
2018-05-31T07:29:22.871Z,34.66
2018-05-31T07:31:50.898Z,34.22
2018-05-31T07:34:18.897Z,32.43
2018-05-31T07:36:46.906Z,32.51
2018-05-31T07:39:14.898Z,31.90
2018-05-31T07:41:42.881Z,31.87
2018-05-31T07:44:10.926Z,32.69
2018-05-31T07:46:39.013Z,31.37
2018-05-31T07:49:07.029Z,30.24
2018-05-31T07:51:35.031Z,31.25
2018-05-31T07:54:03.108Z,31.00
2018-05-31T07:56:31.115Z,30.03
2018-05-31T07:58:59.121Z,30.78
2018-05-31T08:01:27.156Z,30.58
2018-05-31T08:03:55.172Z,30.99
2018-05-31T08:06:23.246Z,27.75
2018-05-31T08:08:51.209Z,29.53
2018-05-31T08:11:19.359Z,28.78
2018-05-31T08:13:47.745Z,28.69
2018-05-31T08:16:15.777Z,27.96
2018-05-31T08:18:43.788Z,27.15
2018-05-31T08:21:11.869Z,27.04
2018-05-31T08:23:39.936Z,26.15
2018-05-31T08:26:07.960Z,26.53
2018-05-31T08:28:35.951Z,25.15
2018-05-31T08:31:04.223Z,26.74
2018-05-31T08:33:32.214Z,25.21
2018-05-31T08:36:00.228Z,24.53
2018-05-31T08:38:28.232Z,23.43
2018-05-31T08:40:56.248Z,24.22
2018-05-31T08:43:24.308Z,24.07
2018-05-31T08:45:52.338Z,22.83
2018-05-31T08:48:20.396Z,23.35
2018-05-31T08:50:48.422Z,23.80
2018-05-31T08:53:16.441Z,23.43
2018-05-31T08:55:44.455Z,23.12
2018-05-31T08:58:12.435Z,21.08
2018-05-31T09:00:40.467Z,20.46
2018-05-31T09:03:09.117Z,20.70
2018-05-31T09:05:38.105Z,20.72
2018-05-31T09:08:06.512Z,20.92
2018-05-31T09:10:34.963Z,19.93
2018-05-31T09:13:03.868Z,20.34
2018-05-31T09:15:32.473Z,20.21
2018-05-31T09:18:00.538Z,19.31
2018-05-31T09:20:28.582Z,19.91
2018-05-31T09:22:56.515Z,20.06
2018-05-31T09:25:24.489Z,19.21
2018-05-31T09:27:52.539Z,19.89
2018-05-31T09:30:20.529Z,19.70
2018-05-31T09:32:48.887Z,20.47
2018-05-31T09:35:16.945Z,20.21
2018-05-31T09:37:45.035Z,18.67
2018-05-31T09:40:13.011Z,18.65
2018-05-31T09:42:41.029Z,17.22
2018-05-31T09:45:09.075Z,18.71
2018-05-31T09:47:37.126Z,17.79
2018-05-31T09:50:05.122Z,16.49
2018-05-31T09:52:33.243Z,16.13
2018-05-31T09:55:01.335Z,16.55
2018-05-31T09:57:29.347Z,16.37
2018-05-31T09:59:57.378Z,16.70
2018-05-31T10:02:25.391Z,15.56
2018-05-31T10:04:53.414Z,16.93
2018-05-31T10:07:21.547Z,13.24
2018-05-31T10:09:49.525Z,13.61
2018-05-31T10:12:17.670Z,11.85
2018-05-31T10:14:45.729Z,10.63
2018-05-31T10:17:13.789Z,8.62
2018-05-31T10:19:41.794Z,8.72
2018-05-31T10:22:09.830Z,8.40
2018-05-31T10:24:37.846Z,9.45
2018-05-31T10:27:05.896Z,8.62
2018-05-31T10:29:33.895Z,8.73
2018-05-31T10:32:01.933Z,8.15
2018-05-31T10:34:30.488Z,10.03
2018-05-31T10:36:59.081Z,10.29
2018-05-31T10:39:27.552Z,8.86
2018-05-31T10:41:56.038Z,9.16
2018-05-31T10:44:24.567Z,8.12
2018-05-31T10:46:53.307Z,8.81
2018-05-31T10:49:21.754Z,8.75
2018-05-31T10:51:50.067Z,9.23
2018-05-31T10:54:18.562Z,8.51
2018-05-31T10:56:47.136Z,7.29
2018-05-31T10:59:15.653Z,7.74
2018-05-31T11:01:44.301Z,7.69
2018-05-31T11:04:12.816Z,8.23
2018-05-31T11:06:41.425Z,7.55
2018-05-31T11:09:10.057Z,8.35
2018-05-31T11:11:38.378Z,8.03
2018-05-31T11:14:07.125Z,8.63
2018-05-31T11:16:35.790Z,7.77
2018-05-31T11:19:04.283Z,6.41
2018-05-31T11:21:32.675Z,6.94
2018-05-31T11:24:01.329Z,7.59
2018-05-31T11:26:30.224Z,8.64
2018-05-31T11:28:59.012Z,7.99
2018-05-31T11:31:27.869Z,8.80
2018-05-31T11:33:56.186Z,8.45
2018-05-31T11:36:25.085Z,8.95
2018-05-31T11:38:53.645Z,9.51
2018-05-31T11:41:22.096Z,8.97
2018-05-31T11:43:50.732Z,7.92
2018-05-31T11:46:19.402Z,6.71
2018-05-31T11:48:48.078Z,7.94
2018-05-31T11:51:16.409Z,7.61
2018-05-31T11:53:44.938Z,7.07
2018-05-31T11:56:13.369Z,5.83
2018-05-31T11:58:41.914Z,7.11
2018-05-31T12:01:10.581Z,7.34
2018-05-31T12:03:39.160Z,7.03
2018-05-31T12:06:07.550Z,6.23
2018-05-31T12:08:36.132Z,6.79
2018-05-31T12:11:04.710Z,7.61
2018-05-31T12:13:33.295Z,7.46
2018-05-31T12:16:01.687Z,7.14
2018-05-31T12:18:30.355Z,5.70
2018-05-31T12:20:58.701Z,5.88
2018-05-31T12:23:27.453Z,6.55
2018-05-31T12:25:55.913Z,6.35
2018-05-31T12:28:24.408Z,6.58
2018-05-31T12:30:53.271Z,6.73
2018-05-31T12:33:22.001Z,7.01
2018-05-31T12:35:50.683Z,6.72
2018-05-31T12:38:19.007Z,5.76
2018-05-31T12:40:47.514Z,6.67
2018-05-31T12:43:16.386Z,6.46
2018-05-31T12:45:45.141Z,5.35
2018-05-31T12:48:13.557Z,5.88
2018-05-31T12:50:42.037Z,6.60
2018-05-31T12:53:10.614Z,5.79
2018-05-31T12:55:39.312Z,6.29
2018-05-31T12:58:07.998Z,8.21
2018-05-31T13:00:36.481Z,7.39
2018-05-31T13:03:04.945Z,7.29
2018-05-31T13:05:33.543Z,7.67
2018-05-31T13:08:02.139Z,6.74
2018-05-31T13:10:30.639Z,6.70
2018-05-31T13:12:59.172Z,6.93
2018-05-31T13:15:27.953Z,6.52
2018-05-31T13:17:56.340Z,7.02
2018-05-31T13:20:25.038Z,6.41
2018-05-31T13:22:53.718Z,6.95
2018-05-31T13:25:22.393Z,6.88
2018-05-31T13:27:50.893Z,5.96
2018-05-31T13:30:19.453Z,6.63
2018-05-31T13:32:47.952Z,7.43
2018-05-31T13:35:16.624Z,6.95
2018-05-31T13:37:45.219Z,7.41
2018-05-31T13:40:13.858Z,8.49
2018-05-31T13:42:42.373Z,7.89
2018-05-31T13:45:10.949Z,6.63
2018-05-31T13:47:38.930Z,7.57
2018-05-31T13:50:07.019Z,7.42
2018-05-31T13:52:35.103Z,7.98
2018-05-31T13:55:03.134Z,7.91
2018-05-31T13:57:31.162Z,8.30
2018-05-31T13:59:59.153Z,7.31
2018-05-31T14:02:27.824Z,5.93
2018-05-31T14:04:56.363Z,8.07
2018-05-31T14:07:25.062Z,8.13
2018-05-31T14:09:53.701Z,8.81
2018-05-31T14:12:22.202Z,6.23
2018-05-31T14:14:50.774Z,6.93
2018-05-31T14:17:19.256Z,5.96
2018-05-31T14:19:47.845Z,7.53
2018-05-31T14:22:16.215Z,7.81
2018-05-31T14:24:44.589Z,8.54
2018-05-31T14:27:13.176Z,8.15
2018-05-31T14:29:41.725Z,8.77
2018-05-31T14:32:10.254Z,7.96
2018-05-31T14:34:39.025Z,8.10
2018-05-31T14:37:07.340Z,7.33
2018-05-31T14:39:35.882Z,8.07
2018-05-31T14:42:04.851Z,8.00
2018-05-31T14:44:33.470Z,8.28
2018-05-31T14:47:01.967Z,9.24
2018-05-31T14:49:30.926Z,8.33
2018-05-31T14:51:59.681Z,8.42
2018-05-31T14:54:28.114Z,8.83
2018-05-31T14:56:56.780Z,8.36
2018-05-31T14:59:25.175Z,9.01
2018-05-31T15:01:53.813Z,8.42
2018-05-31T15:04:22.311Z,10.13
2018-05-31T15:06:50.832Z,10.02
2018-05-31T15:09:19.339Z,9.59
2018-05-31T15:11:47.982Z,9.70
2018-05-31T15:14:16.108Z,10.37
2018-05-31T15:16:44.372Z,10.00
2018-05-31T15:19:13.312Z,9.22
2018-05-31T15:21:41.988Z,10.47
2018-05-31T15:24:10.450Z,10.32
2018-05-31T15:26:39.150Z,11.37
2018-05-31T15:29:07.749Z,11.60
2018-05-31T15:31:36.241Z,10.73
2018-05-31T15:34:04.798Z,11.30
2018-05-31T15:36:33.195Z,11.96
2018-05-31T15:39:01.763Z,12.27
2018-05-31T15:41:30.455Z,11.95
2018-05-31T15:43:59.243Z,11.67
2018-05-31T15:46:27.737Z,13.07
2018-05-31T15:48:56.502Z,12.45
2018-05-31T15:51:24.906Z,13.50
2018-05-31T15:53:52.949Z,13.57
2018-05-31T15:56:21.444Z,13.65
2018-05-31T15:58:50.539Z,13.74
2018-05-31T16:01:18.949Z,15.75
2018-05-31T16:03:46.980Z,17.63
2018-05-31T16:06:15.020Z,18.33
2018-05-31T16:08:43.188Z,22.97
2018-05-31T16:11:11.243Z,21.80
2018-05-31T16:13:39.582Z,22.22
2018-05-31T16:16:08.360Z,24.49
2018-05-31T16:18:37.350Z,24.86
2018-05-31T16:21:06.020Z,27.19
2018-05-31T16:23:34.476Z,27.84
2018-05-31T16:26:02.990Z,28.16
2018-05-31T16:28:31.863Z,28.16
2018-05-31T16:31:00.331Z,27.32
2018-05-31T16:33:28.839Z,28.71
2018-05-31T16:35:57.419Z,29.99
2018-05-31T16:38:26.175Z,30.80
2018-05-31T16:40:54.692Z,31.55
2018-05-31T16:43:23.312Z,31.29
2018-05-31T16:45:52.365Z,30.25
2018-05-31T16:48:20.953Z,31.81
2018-05-31T16:50:49.450Z,31.84
2018-05-31T16:53:18.015Z,30.14
2018-05-31T16:55:46.521Z,29.84
2018-05-31T16:58:15.510Z,28.90
2018-05-31T17:00:43.597Z,29.50
2018-05-31T17:03:11.618Z,29.12
2018-05-31T17:05:39.634Z,30.89
2018-05-31T17:08:07.631Z,31.47
2018-05-31T17:10:35.719Z,34.95
2018-05-31T17:13:03.712Z,35.61
2018-05-31T17:15:31.753Z,35.88
2018-05-31T17:17:59.784Z,35.73
2018-05-31T17:20:27.827Z,34.77
2018-05-31T17:22:55.879Z,35.03
2018-05-31T17:25:23.916Z,34.15
2018-05-31T17:27:51.962Z,34.78
2018-05-31T17:30:19.999Z,35.09
2018-05-31T17:32:48.004Z,32.09
2018-05-31T17:35:16.090Z,32.69
2018-05-31T17:37:44.091Z,36.97
2018-05-31T17:40:12.103Z,37.84
2018-05-31T17:42:40.148Z,38.86
2018-05-31T17:45:08.235Z,36.53
2018-05-31T17:47:36.617Z,37.71
2018-05-31T17:50:04.590Z,36.63
2018-05-31T17:52:32.639Z,37.48
2018-05-31T17:55:00.697Z,35.84
2018-05-31T17:57:28.682Z,35.17
2018-05-31T17:59:56.661Z,37.72
2018-05-31T18:02:24.681Z,36.02
2018-05-31T18:04:52.763Z,35.45
2018-05-31T18:07:20.769Z,35.76
2018-05-31T18:09:48.824Z,33.91
2018-05-31T18:12:16.841Z,33.08
2018-05-31T18:14:44.906Z,33.69
2018-05-31T18:17:12.955Z,35.01
2018-05-31T18:19:41.013Z,34.94
2018-05-31T18:22:09.040Z,36.16
2018-05-31T18:24:37.071Z,35.82
2018-05-31T18:27:05.128Z,35.63
2018-05-31T18:29:33.171Z,35.76
2018-05-31T18:32:01.208Z,36.87
2018-05-31T18:34:29.216Z,36.10
2018-05-31T18:36:57.224Z,36.66
2018-05-31T18:39:25.310Z,37.21
2018-05-31T18:41:53.371Z,36.69
2018-05-31T18:44:21.435Z,36.88
2018-05-31T18:46:49.557Z,37.65
2018-05-31T18:49:17.946Z,37.01
2018-05-31T18:51:46.019Z,39.10
2018-05-31T18:54:14.139Z,39.87
2018-05-31T18:56:42.125Z,36.84
2018-05-31T18:59:10.238Z,37.82
2018-05-31T19:01:38.490Z,38.76
2018-05-31T19:04:06.658Z,40.64
2018-05-31T19:06:34.712Z,39.30
2018-05-31T19:09:02.716Z,38.43
2018-05-31T19:11:30.888Z,39.30
2018-05-31T19:13:59.158Z,41.43
2018-05-31T19:16:27.224Z,40.09
2018-05-31T19:19:00.928Z,38.82
2018-05-31T19:21:28.916Z,41.25
2018-05-31T19:23:57.088Z,41.75
2018-05-31T19:26:25.208Z,39.77
2018-05-31T19:28:53.313Z,39.36
2018-05-31T19:31:21.363Z,39.03
2018-05-31T19:33:49.508Z,39.38
2018-05-31T19:36:23.246Z,38.55
2018-05-31T19:38:51.329Z,38.33
2018-05-31T19:41:19.484Z,38.46
2018-05-31T19:43:53.045Z,38.63
2018-05-31T19:46:21.113Z,38.71
2018-05-31T19:48:49.228Z,38.71
2018-05-31T19:54:25.777Z,38.39
2018-05-31T19:56:53.785Z,39.36
2018-05-31T19:59:27.381Z,39.68
2018-05-31T20:02:01.916Z,39.55
2018-05-31T20:04:30.033Z,39.98
2018-05-31T20:06:58.165Z,40.08
2018-05-31T20:09:26.385Z,39.82
2018-05-31T20:11:54.549Z,39.68
2018-05-31T20:14:22.686Z,39.72
2018-05-31T20:16:50.749Z,39.88
2018-05-31T20:19:19.291Z,40.35
2018-05-31T20:21:47.670Z,40.51
2018-05-31T20:24:16.523Z,41.63
2018-05-31T20:26:45.446Z,40.38
2018-05-31T20:29:13.611Z,41.15
2018-05-31T20:31:41.655Z,40.91
2018-05-31T20:34:10.244Z,41.07
2018-05-31T20:36:38.913Z,41.41
2018-05-31T20:39:07.325Z,41.31
2018-05-31T20:41:35.803Z,41.39
2018-05-31T20:44:04.657Z,41.31
2018-05-31T20:46:32.680Z,41.60
2018-05-31T20:49:00.780Z,41.74
2018-05-31T20:51:28.738Z,41.94
2018-05-31T20:53:57.173Z,42.02
2018-05-31T20:56:25.162Z,42.44
2018-05-31T20:58:53.218Z,43.14
2018-05-31T21:01:21.199Z,42.57
2018-05-31T21:03:49.214Z,43.15
2018-05-31T21:06:17.326Z,42.39
2018-05-31T21:08:45.300Z,42.62
2018-05-31T21:11:13.326Z,42.92
2018-05-31T21:13:41.366Z,42.85
2018-05-31T21:16:09.413Z,44.45
2018-05-31T21:18:37.454Z,43.81
2018-05-31T21:21:05.459Z,45.82
2018-05-31T21:23:33.472Z,43.82
2018-05-31T21:26:01.532Z,44.05
2018-05-31T21:28:29.634Z,44.37
2018-05-31T21:30:57.688Z,43.94
2018-05-31T21:33:25.719Z,43.83
2018-05-31T21:35:53.799Z,43.98
2018-05-31T21:38:21.851Z,44.04
2018-05-31T21:40:49.887Z,44.21
2018-05-31T21:43:17.891Z,44.58
2018-05-31T21:45:45.925Z,44.76
2018-05-31T21:48:13.948Z,44.92
2018-05-31T21:50:41.983Z,44.79
2018-05-31T21:53:10.032Z,44.65
2018-05-31T21:55:38.536Z,46.16
2018-05-31T21:58:06.587Z,44.81
2018-05-31T22:00:41.222Z,44.88
2018-05-31T22:03:09.267Z,44.83
2018-05-31T22:05:37.455Z,44.71
2018-05-31T22:08:05.528Z,44.79
2018-05-31T22:10:34.597Z,46.12
2018-05-31T22:13:03.266Z,45.63
2018-05-31T22:15:31.331Z,45.07
2018-05-31T22:17:59.456Z,45.46
2018-05-31T22:20:27.535Z,48.11
2018-05-31T22:22:55.565Z,46.70
2018-05-31T22:25:23.674Z,45.99
2018-05-31T22:27:51.796Z,46.63
2018-05-31T22:30:19.770Z,45.49
2018-05-31T22:32:47.730Z,45.63
2018-05-31T22:35:15.746Z,45.94
2018-05-31T22:37:43.760Z,45.66
2018-05-31T22:40:11.811Z,45.79
2018-05-31T22:42:39.797Z,45.50
2018-05-31T22:45:07.831Z,46.04
2018-05-31T22:47:35.803Z,46.02
2018-05-31T22:50:03.888Z,47.56
2018-05-31T22:52:31.926Z,47.03
2018-05-31T22:54:59.953Z,47.30
2018-05-31T22:57:28.212Z,47.46
2018-05-31T22:59:56.235Z,47.92
2018-05-31T23:02:24.277Z,47.25
2018-05-31T23:04:52.273Z,46.46
2018-05-31T23:07:20.315Z,47.30
2018-05-31T23:09:48.326Z,47.33
2018-05-31T23:12:16.400Z,46.69
2018-05-31T23:14:44.345Z,46.39
2018-05-31T23:17:12.377Z,46.42
2018-05-31T23:19:40.417Z,46.40
2018-05-31T23:22:08.507Z,46.49
2018-05-31T23:24:36.587Z,47.22
2018-05-31T23:27:04.618Z,48.07
2018-05-31T23:29:32.629Z,47.50
2018-05-31T23:32:00.640Z,47.08
2018-05-31T23:34:28.653Z,46.35
2018-05-31T23:36:56.682Z,49.67
2018-05-31T23:39:24.809Z,49.29
2018-05-31T23:41:52.765Z,47.86
2018-05-31T23:44:20.754Z,47.94
2018-05-31T23:46:48.830Z,48.90
2018-05-31T23:49:16.826Z,48.03
2018-05-31T23:51:44.811Z,48.19
2018-05-31T23:54:12.804Z,47.28
2018-05-31T23:56:40.877Z,47.82
2018-05-31T23:59:09.208Z,47.27
